sensor_id;sensor_type;location;lat;lon;timestamp;temperature;humidity
39655;DHT22;25336;59.944;11.010;2023-03-16T00:00:25;-4.50;55.10
39655;DHT22;25336;59.944;11.010;2023-03-16T00:02:52;-4.60;55.00
39655;DHT22;25336;59.944;11.010;2023-03-16T00:05:17;-4.00;55.50
39655;DHT22;25336;59.944;11.010;2023-03-16T00:07:43;-4.70;55.10
39655;DHT22;25336;59.944;11.010;2023-03-16T00:10:10;-4.30;55.60
39655;DHT22;25336;59.944;11.010;2023-03-16T00:12:37;-3.80;56.10
39655;DHT22;25336;59.944;11.010;2023-03-16T00:15:02;-4.80;55.50
39655;DHT22;25336;59.944;11.010;2023-03-16T00:17:29;-4.80;55.60
39655;DHT22;25336;59.944;11.010;2023-03-16T00:19:56;-4.80;55.80
39655;DHT22;25336;59.944;11.010;2023-03-16T00:22:24;-4.90;55.60
39655;DHT22;25336;59.944;11.010;2023-03-16T00:24:53;-4.90;55.60
39655;DHT22;25336;59.944;11.010;2023-03-16T00:27:20;-4.90;55.80
39655;DHT22;25336;59.944;11.010;2023-03-16T00:29:47;-4.00;56.40
39655;DHT22;25336;59.944;11.010;2023-03-16T00:32:18;-5.00;56.10
39655;DHT22;25336;59.944;11.010;2023-03-16T00:34:45;-4.60;56.50
39655;DHT22;25336;59.944;11.010;2023-03-16T00:37:14;-5.00;56.50
39655;DHT22;25336;59.944;11.010;2023-03-16T00:39:44;-4.30;56.90
39655;DHT22;25336;59.944;11.010;2023-03-16T00:42:11;-5.00;56.60
39655;DHT22;25336;59.944;11.010;2023-03-16T00:44:38;-5.00;56.40
39655;DHT22;25336;59.944;11.010;2023-03-16T00:47:04;-5.00;56.20
39655;DHT22;25336;59.944;11.010;2023-03-16T00:49:31;-5.10;56.30
39655;DHT22;25336;59.944;11.010;2023-03-16T00:52:03;-5.10;56.40
39655;DHT22;25336;59.944;11.010;2023-03-16T00:54:29;-5.10;56.50
39655;DHT22;25336;59.944;11.010;2023-03-16T00:57:00;-5.10;56.60
39655;DHT22;25336;59.944;11.010;2023-03-16T00:59:27;-5.10;56.60
39655;DHT22;25336;59.944;11.010;2023-03-16T01:01:53;-5.20;56.50
39655;DHT22;25336;59.944;11.010;2023-03-16T01:04:20;-4.20;56.90
39655;DHT22;25336;59.944;11.010;2023-03-16T01:06:46;-5.20;56.50
39655;DHT22;25336;59.944;11.010;2023-03-16T01:09:12;-5.20;56.40
39655;DHT22;25336;59.944;11.010;2023-03-16T01:11:40;-5.20;56.50
39655;DHT22;25336;59.944;11.010;2023-03-16T01:14:09;-5.20;56.50
39655;DHT22;25336;59.944;11.010;2023-03-16T01:16:35;-5.30;56.50
39655;DHT22;25336;59.944;11.010;2023-03-16T01:19:01;-5.30;56.50
39655;DHT22;25336;59.944;11.010;2023-03-16T01:21:27;-5.00;56.50
39655;DHT22;25336;59.944;11.010;2023-03-16T01:23:53;-4.40;56.90
39655;DHT22;25336;59.944;11.010;2023-03-16T01:26:19;-5.30;56.70
39655;DHT22;25336;59.944;11.010;2023-03-16T01:28:46;-4.70;57.10
39655;DHT22;25336;59.944;11.010;2023-03-16T01:31:13;-5.40;56.80
39655;DHT22;25336;59.944;11.010;2023-03-16T01:33:39;-4.00;57.60
39655;DHT22;25336;59.944;11.010;2023-03-16T01:36:08;-5.40;56.80
39655;DHT22;25336;59.944;11.010;2023-03-16T01:38:34;-5.30;57.40
39655;DHT22;25336;59.944;11.010;2023-03-16T01:41:01;-5.40;56.70
39655;DHT22;25336;59.944;11.010;2023-03-16T01:43:28;-5.40;56.70
39655;DHT22;25336;59.944;11.010;2023-03-16T01:46:22;-5.40;56.50
39655;DHT22;25336;59.944;11.010;2023-03-16T01:49:01;-4.20;57.20
39655;DHT22;25336;59.944;11.010;2023-03-16T01:51:37;-5.50;56.60
39655;DHT22;25336;59.944;11.010;2023-03-16T01:54:19;-5.50;56.80
39655;DHT22;25336;59.944;11.010;2023-03-16T01:57:15;-5.50;56.70
39655;DHT22;25336;59.944;11.010;2023-03-16T01:59:47;-5.50;57.00
39655;DHT22;25336;59.944;11.010;2023-03-16T02:02:18;-5.50;56.70
39655;DHT22;25336;59.944;11.010;2023-03-16T02:07:24;-5.60;57.00
39655;DHT22;25336;59.944;11.010;2023-03-16T02:09:55;-5.60;57.20
39655;DHT22;25336;59.944;11.010;2023-03-16T02:12:21;-4.40;57.90
39655;DHT22;25336;59.944;11.010;2023-03-16T02:14:49;-5.60;57.40
39655;DHT22;25336;59.944;11.010;2023-03-16T02:17:17;-5.50;57.20
39655;DHT22;25336;59.944;11.010;2023-03-16T02:19:59;-5.60;57.00
39655;DHT22;25336;59.944;11.010;2023-03-16T02:22:28;-5.60;56.80
39655;DHT22;25336;59.944;11.010;2023-03-16T02:25:00;-5.60;56.60
39655;DHT22;25336;59.944;11.010;2023-03-16T02:27:52;-5.70;56.50
39655;DHT22;25336;59.944;11.010;2023-03-16T02:30:20;-5.70;56.70
39655;DHT22;25336;59.944;11.010;2023-03-16T02:32:48;-5.80;56.30
39655;DHT22;25336;59.944;11.010;2023-03-16T02:35:16;-5.80;56.30
39655;DHT22;25336;59.944;11.010;2023-03-16T02:37:41;-5.80;56.30
39655;DHT22;25336;59.944;11.010;2023-03-16T02:40:37;-4.90;56.70
39655;DHT22;25336;59.944;11.010;2023-03-16T02:43:12;-5.90;56.70
39655;DHT22;25336;59.944;11.010;2023-03-16T02:45:49;-6.00;56.70
39655;DHT22;25336;59.944;11.010;2023-03-16T02:50:59;-6.00;56.90
39655;DHT22;25336;59.944;11.010;2023-03-16T02:53:24;-6.00;56.70
39655;DHT22;25336;59.944;11.010;2023-03-16T02:55:50;-6.10;56.60
39655;DHT22;25336;59.944;11.010;2023-03-16T02:58:15;-6.10;56.50
39655;DHT22;25336;59.944;11.010;2023-03-16T03:00:41;-5.90;56.50
39655;DHT22;25336;59.944;11.010;2023-03-16T03:03:07;-6.10;56.30
39655;DHT22;25336;59.944;11.010;2023-03-16T03:05:34;-6.20;56.20
39655;DHT22;25336;59.944;11.010;2023-03-16T03:08:00;-6.20;56.20
39655;DHT22;25336;59.944;11.010;2023-03-16T03:10:26;-6.20;56.30
39655;DHT22;25336;59.944;11.010;2023-03-16T03:12:51;-5.20;56.90
39655;DHT22;25336;59.944;11.010;2023-03-16T03:15:17;-6.30;56.40
39655;DHT22;25336;59.944;11.010;2023-03-16T03:17:43;-6.40;56.30
39655;DHT22;25336;59.944;11.010;2023-03-16T03:20:10;-6.40;56.30
39655;DHT22;25336;59.944;11.010;2023-03-16T03:22:43;-6.40;56.30
39655;DHT22;25336;59.944;11.010;2023-03-16T03:25:13;-6.50;56.20
39655;DHT22;25336;59.944;11.010;2023-03-16T03:27:41;-6.50;56.30
39655;DHT22;25336;59.944;11.010;2023-03-16T03:30:09;-6.50;56.40
39655;DHT22;25336;59.944;11.010;2023-03-16T03:32:35;-6.60;56.40
39655;DHT22;25336;59.944;11.010;2023-03-16T03:35:00;-6.60;56.60
39655;DHT22;25336;59.944;11.010;2023-03-16T03:37:26;-6.60;56.70
39655;DHT22;25336;59.944;11.010;2023-03-16T03:39:53;-5.50;57.30
39655;DHT22;25336;59.944;11.010;2023-03-16T03:42:18;-6.70;56.60
39655;DHT22;25336;59.944;11.010;2023-03-16T03:44:44;-6.70;57.20
39655;DHT22;25336;59.944;11.010;2023-03-16T03:47:09;-5.80;57.20
39655;DHT22;25336;59.944;11.010;2023-03-16T03:49:35;-6.40;56.80
39655;DHT22;25336;59.944;11.010;2023-03-16T03:52:01;-6.80;56.60
39655;DHT22;25336;59.944;11.010;2023-03-16T03:54:29;-6.80;56.60
39655;DHT22;25336;59.944;11.010;2023-03-16T03:56:55;-6.70;56.50
39655;DHT22;25336;59.944;11.010;2023-03-16T03:59:21;-6.90;56.50
39655;DHT22;25336;59.944;11.010;2023-03-16T04:01:48;-6.90;56.60
39655;DHT22;25336;59.944;11.010;2023-03-16T04:04:14;-7.00;57.20
39655;DHT22;25336;59.944;11.010;2023-03-16T04:06:40;-6.50;57.00
39655;DHT22;25336;59.944;11.010;2023-03-16T04:09:06;-7.00;56.90
39655;DHT22;25336;59.944;11.010;2023-03-16T04:11:32;-7.00;57.00
39655;DHT22;25336;59.944;11.010;2023-03-16T04:13:57;-6.40;57.30
39655;DHT22;25336;59.944;11.010;2023-03-16T04:16:23;-6.10;57.40
39655;DHT22;25336;59.944;11.010;2023-03-16T04:18:52;-7.10;56.70
39655;DHT22;25336;59.944;11.010;2023-03-16T04:21:19;-7.10;56.60
39655;DHT22;25336;59.944;11.010;2023-03-16T04:23:46;-7.20;56.50
39655;DHT22;25336;59.944;11.010;2023-03-16T04:26:12;-7.20;56.40
39655;DHT22;25336;59.944;11.010;2023-03-16T04:28:37;-6.30;56.70
39655;DHT22;25336;59.944;11.010;2023-03-16T04:31:05;-6.40;56.40
39655;DHT22;25336;59.944;11.010;2023-03-16T04:33:35;-7.40;56.00
39655;DHT22;25336;59.944;11.010;2023-03-16T04:36:02;-7.50;55.80
39655;DHT22;25336;59.944;11.010;2023-03-16T04:38:28;-7.50;56.00
39655;DHT22;25336;59.944;11.010;2023-03-16T04:40:55;-7.20;56.20
39655;DHT22;25336;59.944;11.010;2023-03-16T04:43:20;-7.60;56.30
39655;DHT22;25336;59.944;11.010;2023-03-16T04:45:47;-7.60;56.40
39655;DHT22;25336;59.944;11.010;2023-03-16T04:48:12;-7.60;56.60
39655;DHT22;25336;59.944;11.010;2023-03-16T04:50:38;-6.50;57.30
39655;DHT22;25336;59.944;11.010;2023-03-16T04:53:04;-7.60;56.90
39655;DHT22;25336;59.944;11.010;2023-03-16T04:55:30;-7.70;57.00
39655;DHT22;25336;59.944;11.010;2023-03-16T04:57:56;-6.40;57.80
39655;DHT22;25336;59.944;11.010;2023-03-16T05:00:22;-7.70;57.10
39655;DHT22;25336;59.944;11.010;2023-03-16T05:02:48;-7.70;57.20
39655;DHT22;25336;59.944;11.010;2023-03-16T05:05:14;-7.70;57.10
39655;DHT22;25336;59.944;11.010;2023-03-16T05:07:41;-6.70;57.60
39655;DHT22;25336;59.944;11.010;2023-03-16T05:10:08;-7.70;57.10
39655;DHT22;25336;59.944;11.010;2023-03-16T05:12:34;-7.50;57.00
39655;DHT22;25336;59.944;11.010;2023-03-16T05:14:59;-7.60;56.90
39655;DHT22;25336;59.944;11.010;2023-03-16T05:17:26;-7.80;56.80
39655;DHT22;25336;59.944;11.010;2023-03-16T05:19:51;-7.90;56.60
39655;DHT22;25336;59.944;11.010;2023-03-16T05:22:17;-7.90;56.80
39655;DHT22;25336;59.944;11.010;2023-03-16T05:24:43;-7.90;56.80
39655;DHT22;25336;59.944;11.010;2023-03-16T05:27:08;-6.90;57.40
39655;DHT22;25336;59.944;11.010;2023-03-16T05:29:34;-7.90;57.00
39655;DHT22;25336;59.944;11.010;2023-03-16T05:31:59;-6.90;57.60
39655;DHT22;25336;59.944;11.010;2023-03-16T05:34:26;-7.90;57.20
39655;DHT22;25336;59.944;11.010;2023-03-16T05:36:51;-7.90;57.10
39655;DHT22;25336;59.944;11.010;2023-03-16T05:39:17;-7.90;57.20
39655;DHT22;25336;59.944;11.010;2023-03-16T05:41:43;-8.00;57.20
39655;DHT22;25336;59.944;11.010;2023-03-16T05:44:09;-7.90;57.40
39655;DHT22;25336;59.944;11.010;2023-03-16T05:46:35;-8.00;57.30
39655;DHT22;25336;59.944;11.010;2023-03-16T05:49:01;-8.00;57.20
39655;DHT22;25336;59.944;11.010;2023-03-16T05:51:27;-8.00;57.10
39655;DHT22;25336;59.944;11.010;2023-03-16T05:53:53;-8.00;57.10
39655;DHT22;25336;59.944;11.010;2023-03-16T05:56:24;-8.00;57.20
39655;DHT22;25336;59.944;11.010;2023-03-16T05:58:51;-8.00;57.20
39655;DHT22;25336;59.944;11.010;2023-03-16T06:01:17;-7.40;57.50
39655;DHT22;25336;59.944;11.010;2023-03-16T06:03:46;-8.00;57.20
39655;DHT22;25336;59.944;11.010;2023-03-16T06:06:14;-8.00;57.30
39655;DHT22;25336;59.944;11.010;2023-03-16T06:08:40;-8.10;57.30
39655;DHT22;25336;59.944;11.010;2023-03-16T06:11:06;-7.70;57.70
39655;DHT22;25336;59.944;11.010;2023-03-16T06:13:32;-8.00;57.70
39655;DHT22;25336;59.944;11.010;2023-03-16T06:15:57;-8.00;57.60
39655;DHT22;25336;59.944;11.010;2023-03-16T06:18:23;-6.90;58.20
39655;DHT22;25336;59.944;11.010;2023-03-16T06:20:48;-8.00;57.80
39655;DHT22;25336;59.944;11.010;2023-03-16T06:23:15;-7.20;58.40
39655;DHT22;25336;59.944;11.010;2023-03-16T06:25:41;-7.90;58.40
39655;DHT22;25336;59.944;11.010;2023-03-16T06:28:07;-7.90;58.60
39655;DHT22;25336;59.944;11.010;2023-03-16T06:30:33;-7.80;58.80
39655;DHT22;25336;59.944;11.010;2023-03-16T06:32:58;-7.80;58.70
39655;DHT22;25336;59.944;11.010;2023-03-16T06:35:25;-8.20;58.70
39655;DHT22;25336;59.944;11.010;2023-03-16T06:37:50;-7.30;59.00
39655;DHT22;25336;59.944;11.010;2023-03-16T06:40:16;-7.70;58.90
39655;DHT22;25336;59.944;11.010;2023-03-16T06:42:42;-7.60;59.00
39655;DHT22;25336;59.944;11.010;2023-03-16T06:45:08;-7.60;58.80
39655;DHT22;25336;59.944;11.010;2023-03-16T06:47:35;-7.60;58.70
39655;DHT22;25336;59.944;11.010;2023-03-16T06:50:01;-7.50;58.90
39655;DHT22;25336;59.944;11.010;2023-03-16T06:52:27;-6.20;59.40
39655;DHT22;25336;59.944;11.010;2023-03-16T06:54:53;-7.50;58.90
39655;DHT22;25336;59.944;11.010;2023-03-16T06:57:18;-7.40;58.80
39655;DHT22;25336;59.944;11.010;2023-03-16T06:59:44;-7.40;58.60
39655;DHT22;25336;59.944;11.010;2023-03-16T07:02:11;-7.70;58.50
39655;DHT22;25336;59.944;11.010;2023-03-16T07:04:38;-7.30;58.70
39655;DHT22;25336;59.944;11.010;2023-03-16T07:07:04;-6.70;59.00
39655;DHT22;25336;59.944;11.010;2023-03-16T07:09:29;-7.20;58.80
39655;DHT22;25336;59.944;11.010;2023-03-16T07:11:55;-7.10;58.80
39655;DHT22;25336;59.944;11.010;2023-03-16T07:14:21;-6.00;59.20
39655;DHT22;25336;59.944;11.010;2023-03-16T07:16:47;-7.00;58.70
39655;DHT22;25336;59.944;11.010;2023-03-16T07:19:13;-6.90;58.60
39655;DHT22;25336;59.944;11.010;2023-03-16T07:21:39;-5.50;59.30
39655;DHT22;25336;59.944;11.010;2023-03-16T07:24:08;-6.80;58.70
39655;DHT22;25336;59.944;11.010;2023-03-16T07:26:34;-6.80;58.50
39655;DHT22;25336;59.944;11.010;2023-03-16T07:28:59;-5.60;58.90
39655;DHT22;25336;59.944;11.010;2023-03-16T07:31:25;-6.60;58.50
39655;DHT22;25336;59.944;11.010;2023-03-16T07:33:51;-6.60;58.50
39655;DHT22;25336;59.944;11.010;2023-03-16T07:36:16;-6.50;58.60
39655;DHT22;25336;59.944;11.010;2023-03-16T07:38:42;-6.50;58.50
39655;DHT22;25336;59.944;11.010;2023-03-16T07:41:08;-5.40;59.10
39655;DHT22;25336;59.944;11.010;2023-03-16T07:43:34;-6.30;58.50
39655;DHT22;25336;59.944;11.010;2023-03-16T07:45:59;-6.20;58.60
39655;DHT22;25336;59.944;11.010;2023-03-16T07:48:25;-6.20;58.50
39655;DHT22;25336;59.944;11.010;2023-03-16T07:50:51;-6.10;58.50
39655;DHT22;25336;59.944;11.010;2023-03-16T07:53:18;-6.00;58.50
39655;DHT22;25336;59.944;11.010;2023-03-16T07:55:45;-5.10;59.00
39655;DHT22;25336;59.944;11.010;2023-03-16T07:58:11;-5.90;58.70
39655;DHT22;25336;59.944;11.010;2023-03-16T08:00:37;-4.80;59.20
39655;DHT22;25336;59.944;11.010;2023-03-16T08:03:04;-5.80;58.80
39655;DHT22;25336;59.944;11.010;2023-03-16T08:05:30;-5.70;58.70
39655;DHT22;25336;59.944;11.010;2023-03-16T08:07:58;-5.60;58.70
39655;DHT22;25336;59.944;11.010;2023-03-16T08:10:25;-5.50;58.70
39655;DHT22;25336;59.944;11.010;2023-03-16T08:12:51;-5.40;58.50
39655;DHT22;25336;59.944;11.010;2023-03-16T08:15:17;-4.10;59.00
39655;DHT22;25336;59.944;11.010;2023-03-16T08:17:42;-5.30;58.50
39655;DHT22;25336;59.944;11.010;2023-03-16T08:20:09;-5.20;58.90
39655;DHT22;25336;59.944;11.010;2023-03-16T08:22:35;-5.20;58.60
39655;DHT22;25336;59.944;11.010;2023-03-16T08:25:02;-5.10;58.50
39655;DHT22;25336;59.944;11.010;2023-03-16T08:27:28;-5.00;58.50
39655;DHT22;25336;59.944;11.010;2023-03-16T08:29:54;-4.90;58.40
39655;DHT22;25336;59.944;11.010;2023-03-16T08:32:20;-4.80;58.20
39655;DHT22;25336;59.944;11.010;2023-03-16T08:34:45;-4.70;58.00
39655;DHT22;25336;59.944;11.010;2023-03-16T08:37:13;-4.70;58.00
39655;DHT22;25336;59.944;11.010;2023-03-16T08:39:40;-4.60;58.00
39655;DHT22;25336;59.944;11.010;2023-03-16T08:42:06;-4.50;57.90
39655;DHT22;25336;59.944;11.010;2023-03-16T08:44:32;-4.40;57.80
39655;DHT22;25336;59.944;11.010;2023-03-16T08:46:58;-4.30;57.80
39655;DHT22;25336;59.944;11.010;2023-03-16T08:49:24;-4.20;57.70
39655;DHT22;25336;59.944;11.010;2023-03-16T08:51:51;-4.10;57.60
39655;DHT22;25336;59.944;11.010;2023-03-16T08:54:18;-4.00;57.70
39655;DHT22;25336;59.944;11.010;2023-03-16T08:56:44;-2.70;58.20
39655;DHT22;25336;59.944;11.010;2023-03-16T08:59:09;-3.80;57.50
39655;DHT22;25336;59.944;11.010;2023-03-16T09:01:35;-3.70;57.50
39655;DHT22;25336;59.944;11.010;2023-03-16T09:04:01;-3.60;57.40
39655;DHT22;25336;59.944;11.010;2023-03-16T09:06:27;-3.50;57.40
39655;DHT22;25336;59.944;11.010;2023-03-16T09:08:53;-3.40;57.20
39655;DHT22;25336;59.944;11.010;2023-03-16T09:11:20;-3.30;57.00
39655;DHT22;25336;59.944;11.010;2023-03-16T09:13:46;-3.20;56.90
39655;DHT22;25336;59.944;11.010;2023-03-16T09:16:13;-3.10;56.70
39655;DHT22;25336;59.944;11.010;2023-03-16T09:18:40;-3.00;56.40
39655;DHT22;25336;59.944;11.010;2023-03-16T09:21:08;-3.00;56.30
39655;DHT22;25336;59.944;11.010;2023-03-16T09:23:35;-2.90;56.20
39655;DHT22;25336;59.944;11.010;2023-03-16T09:26:03;-2.80;56.00
39655;DHT22;25336;59.944;11.010;2023-03-16T09:28:30;-1.70;56.50
39655;DHT22;25336;59.944;11.010;2023-03-16T09:30:57;-2.70;56.20
39655;DHT22;25336;59.944;11.010;2023-03-16T09:33:24;-2.60;56.00
39655;DHT22;25336;59.944;11.010;2023-03-16T09:35:50;-2.60;56.00
39655;DHT22;25336;59.944;11.010;2023-03-16T09:38:20;-2.50;56.00
39655;DHT22;25336;59.944;11.010;2023-03-16T09:40:47;-2.40;56.00
39655;DHT22;25336;59.944;11.010;2023-03-16T09:48:33;-2.10;55.70
39655;DHT22;25336;59.944;11.010;2023-03-16T09:51:01;-2.00;55.70
39655;DHT22;25336;59.944;11.010;2023-03-16T09:53:30;-1.90;55.40
39655;DHT22;25336;59.944;11.010;2023-03-16T09:56:19;-1.80;55.30
39655;DHT22;25336;59.944;11.010;2023-03-16T09:58:46;-1.80;55.10
39655;DHT22;25336;59.944;11.010;2023-03-16T10:06:28;-1.40;54.80
39655;DHT22;25336;59.944;11.010;2023-03-16T10:11:54;-1.30;54.50
39655;DHT22;25336;59.944;11.010;2023-03-16T10:17:16;-1.10;54.20
39655;DHT22;25336;59.944;11.010;2023-03-16T10:19:56;-1.10;54.30
39655;DHT22;25336;59.944;11.010;2023-03-16T10:22:26;-1.00;54.20
39655;DHT22;25336;59.944;11.010;2023-03-16T10:27:35;-0.80;54.40
39655;DHT22;25336;59.944;11.010;2023-03-16T10:30:03;-0.80;54.30
39655;DHT22;25336;59.944;11.010;2023-03-16T10:32:31;-0.70;54.30
39655;DHT22;25336;59.944;11.010;2023-03-16T10:35:04;-0.50;54.40
39655;DHT22;25336;59.944;11.010;2023-03-16T10:37:31;-0.40;54.20
39655;DHT22;25336;59.944;11.010;2023-03-16T10:39:58;-0.30;54.10
39655;DHT22;25336;59.944;11.010;2023-03-16T10:42:25;-0.20;54.10
39655;DHT22;25336;59.944;11.010;2023-03-16T10:45:00;-0.10;53.90
39655;DHT22;25336;59.944;11.010;2023-03-16T10:47:31;0.00;53.80
39655;DHT22;25336;59.944;11.010;2023-03-16T10:49:57;0.10;53.90
39655;DHT22;25336;59.944;11.010;2023-03-16T10:52:33;0.30;53.80
39655;DHT22;25336;59.944;11.010;2023-03-16T10:55:00;0.40;53.40
39655;DHT22;25336;59.944;11.010;2023-03-16T10:57:31;0.50;53.40
39655;DHT22;25336;59.944;11.010;2023-03-16T11:00:14;0.60;53.30
39655;DHT22;25336;59.944;11.010;2023-03-16T11:02:41;0.80;53.20
39655;DHT22;25336;59.944;11.010;2023-03-16T11:07:47;1.00;52.70
39655;DHT22;25336;59.944;11.010;2023-03-16T11:10:29;1.20;52.60
39655;DHT22;25336;59.944;11.010;2023-03-16T11:13:01;1.30;52.40
39655;DHT22;25336;59.944;11.010;2023-03-16T11:15:37;1.30;52.00
39655;DHT22;25336;59.944;11.010;2023-03-16T11:18:07;1.40;51.90
39655;DHT22;25336;59.944;11.010;2023-03-16T11:20:34;1.30;52.10
39655;DHT22;25336;59.944;11.010;2023-03-16T11:23:00;1.60;52.20
39655;DHT22;25336;59.944;11.010;2023-03-16T11:25:35;1.70;52.20
39655;DHT22;25336;59.944;11.010;2023-03-16T11:28:24;1.70;52.20
39655;DHT22;25336;59.944;11.010;2023-03-16T11:31:21;1.90;52.00
39655;DHT22;25336;59.944;11.010;2023-03-16T11:33:49;2.00;52.00
39655;DHT22;25336;59.944;11.010;2023-03-16T11:49:54;2.70;50.90
39655;DHT22;25336;59.944;11.010;2023-03-16T11:52:33;2.70;50.90
39655;DHT22;25336;59.944;11.010;2023-03-16T11:55:22;2.90;50.90
39655;DHT22;25336;59.944;11.010;2023-03-16T11:58:29;2.90;51.00
39655;DHT22;25336;59.944;11.010;2023-03-16T12:15:44;3.40;49.80
39655;DHT22;25336;59.944;11.010;2023-03-16T12:18:18;3.50;49.00
39655;DHT22;25336;59.944;11.010;2023-03-16T12:20:59;3.50;49.70
39655;DHT22;25336;59.944;11.010;2023-03-16T12:23:32;3.60;49.50
39655;DHT22;25336;59.944;11.010;2023-03-16T12:25:59;3.70;49.60
39655;DHT22;25336;59.944;11.010;2023-03-16T12:28:28;3.70;49.60
39655;DHT22;25336;59.944;11.010;2023-03-16T12:33:51;3.90;49.20
39655;DHT22;25336;59.944;11.010;2023-03-16T12:39:04;4.00;48.80
39655;DHT22;25336;59.944;11.010;2023-03-16T12:49:13;4.10;48.60
39655;DHT22;25336;59.944;11.010;2023-03-16T12:51:41;4.10;48.30
39655;DHT22;25336;59.944;11.010;2023-03-16T12:54:22;4.20;48.40
39655;DHT22;25336;59.944;11.010;2023-03-16T12:56:49;4.20;48.00
39655;DHT22;25336;59.944;11.010;2023-03-16T12:59:21;4.20;48.10
39655;DHT22;25336;59.944;11.010;2023-03-16T13:01:57;4.30;48.20
39655;DHT22;25336;59.944;11.010;2023-03-16T13:04:32;4.30;47.90
39655;DHT22;25336;59.944;11.010;2023-03-16T13:07:05;4.30;47.70
39655;DHT22;25336;59.944;11.010;2023-03-16T13:09:35;4.30;47.90
39655;DHT22;25336;59.944;11.010;2023-03-16T13:12:01;4.30;48.10
39655;DHT22;25336;59.944;11.010;2023-03-16T13:14:41;4.40;48.20
39655;DHT22;25336;59.944;11.010;2023-03-16T13:19:36;5.20;48.20
39655;DHT22;25336;59.944;11.010;2023-03-16T13:22:44;4.50;47.70
39655;DHT22;25336;59.944;11.010;2023-03-16T13:27:49;4.60;48.10
39655;DHT22;25336;59.944;11.010;2023-03-16T13:30:22;4.60;48.10
39655;DHT22;25336;59.944;11.010;2023-03-16T13:32:53;4.60;47.90
39655;DHT22;25336;59.944;11.010;2023-03-16T13:35:20;4.70;48.10
39655;DHT22;25336;59.944;11.010;2023-03-16T13:37:49;4.80;48.20
39655;DHT22;25336;59.944;11.010;2023-03-16T13:42:46;4.80;48.10
39655;DHT22;25336;59.944;11.010;2023-03-16T13:45:18;4.80;48.10
39655;DHT22;25336;59.944;11.010;2023-03-16T13:47:44;4.90;48.20
39655;DHT22;25336;59.944;11.010;2023-03-16T13:50:13;4.90;48.30
39655;DHT22;25336;59.944;11.010;2023-03-16T13:52:40;5.00;48.30
39655;DHT22;25336;59.944;11.010;2023-03-16T13:55:25;5.00;48.50
39655;DHT22;25336;59.944;11.010;2023-03-16T13:57:51;5.10;48.20
39655;DHT22;25336;59.944;11.010;2023-03-16T14:00:26;5.20;48.30
39655;DHT22;25336;59.944;11.010;2023-03-16T14:02:56;5.20;48.20
39655;DHT22;25336;59.944;11.010;2023-03-16T14:05:32;5.30;48.30
39655;DHT22;25336;59.944;11.010;2023-03-16T14:07:59;5.40;48.00
39655;DHT22;25336;59.944;11.010;2023-03-16T14:10:32;5.40;47.90
39655;DHT22;25336;59.944;11.010;2023-03-16T14:15:53;5.60;47.50
39655;DHT22;25336;59.944;11.010;2023-03-16T14:18:22;5.70;47.80
39655;DHT22;25336;59.944;11.010;2023-03-16T14:20:54;5.80;47.60
39655;DHT22;25336;59.944;11.010;2023-03-16T14:23:26;6.00;47.30
39655;DHT22;25336;59.944;11.010;2023-03-16T14:25:54;6.00;47.20
39655;DHT22;25336;59.944;11.010;2023-03-16T14:28:27;6.10;47.10
39655;DHT22;25336;59.944;11.010;2023-03-16T14:31:00;6.20;46.70
39655;DHT22;25336;59.944;11.010;2023-03-16T14:33:32;6.20;46.70
39655;DHT22;25336;59.944;11.010;2023-03-16T14:36:05;6.30;46.40
39655;DHT22;25336;59.944;11.010;2023-03-16T14:38:34;6.40;46.40
39655;DHT22;25336;59.944;11.010;2023-03-16T14:43:35;6.50;46.10
39655;DHT22;25336;59.944;11.010;2023-03-16T14:46:06;6.50;45.90
39655;DHT22;25336;59.944;11.010;2023-03-16T14:48:33;6.50;45.80
39655;DHT22;25336;59.944;11.010;2023-03-16T14:51:00;6.50;45.80
39655;DHT22;25336;59.944;11.010;2023-03-16T14:53:27;6.50;45.60
39655;DHT22;25336;59.944;11.010;2023-03-16T14:55:54;6.50;45.40
39655;DHT22;25336;59.944;11.010;2023-03-16T14:58:20;6.50;46.10
39655;DHT22;25336;59.944;11.010;2023-03-16T15:00:46;6.40;45.40
39655;DHT22;25336;59.944;11.010;2023-03-16T15:03:14;6.50;45.40
39655;DHT22;25336;59.944;11.010;2023-03-16T15:05:46;6.50;45.30
39655;DHT22;25336;59.944;11.010;2023-03-16T15:08:23;6.50;45.20
39655;DHT22;25336;59.944;11.010;2023-03-16T15:10:51;6.50;45.10
39655;DHT22;25336;59.944;11.010;2023-03-16T15:13:20;6.50;45.30
39655;DHT22;25336;59.944;11.010;2023-03-16T15:16:02;6.60;45.30
39655;DHT22;25336;59.944;11.010;2023-03-16T15:18:28;6.60;44.90
39655;DHT22;25336;59.944;11.010;2023-03-16T15:20:54;6.60;45.60
39655;DHT22;25336;59.944;11.010;2023-03-16T15:23:20;6.50;45.50
39655;DHT22;25336;59.944;11.010;2023-03-16T15:25:48;6.50;45.40
39655;DHT22;25336;59.944;11.010;2023-03-16T15:28:19;7.40;45.90
39655;DHT22;25336;59.944;11.010;2023-03-16T15:30:56;6.50;45.40
39655;DHT22;25336;59.944;11.010;2023-03-16T15:33:22;6.50;45.40
39655;DHT22;25336;59.944;11.010;2023-03-16T15:35:50;6.50;45.30
39655;DHT22;25336;59.944;11.010;2023-03-16T15:38:33;6.50;45.40
39655;DHT22;25336;59.944;11.010;2023-03-16T15:41:00;6.40;45.20
39655;DHT22;25336;59.944;11.010;2023-03-16T15:43:29;6.40;45.40
39655;DHT22;25336;59.944;11.010;2023-03-16T15:45:56;6.40;45.30
39655;DHT22;25336;59.944;11.010;2023-03-16T15:48:23;6.40;45.30
39655;DHT22;25336;59.944;11.010;2023-03-16T15:50:56;6.40;45.40
39655;DHT22;25336;59.944;11.010;2023-03-16T15:53:31;6.30;45.20
39655;DHT22;25336;59.944;11.010;2023-03-16T15:56:03;6.30;45.00
39655;DHT22;25336;59.944;11.010;2023-03-16T15:58:31;6.30;45.00
39655;DHT22;25336;59.944;11.010;2023-03-16T16:00:59;6.60;45.20
39655;DHT22;25336;59.944;11.010;2023-03-16T16:03:26;6.20;44.90
39655;DHT22;25336;59.944;11.010;2023-03-16T16:05:52;6.20;44.80
39655;DHT22;25336;59.944;11.010;2023-03-16T16:08:18;6.10;44.50
39655;DHT22;25336;59.944;11.010;2023-03-16T16:10:46;6.10;44.30
39655;DHT22;25336;59.944;11.010;2023-03-16T16:13:28;6.00;44.10
39655;DHT22;25336;59.944;11.010;2023-03-16T16:15:55;6.00;44.30
39655;DHT22;25336;59.944;11.010;2023-03-16T16:20:53;5.80;44.60
39655;DHT22;25336;59.944;11.010;2023-03-16T16:23:18;5.80;44.80
39655;DHT22;25336;59.944;11.010;2023-03-16T16:25:44;5.70;44.60
39655;DHT22;25336;59.944;11.010;2023-03-16T16:28:19;5.60;44.50
39655;DHT22;25336;59.944;11.010;2023-03-16T16:30:45;5.60;44.70
39655;DHT22;25336;59.944;11.010;2023-03-16T16:33:29;5.60;45.10
39655;DHT22;25336;59.944;11.010;2023-03-16T16:35:57;5.60;44.80
39655;DHT22;25336;59.944;11.010;2023-03-16T16:38:24;5.50;45.00
39655;DHT22;25336;59.944;11.010;2023-03-16T16:40:51;5.50;45.10
39655;DHT22;25336;59.944;11.010;2023-03-16T16:45:49;5.40;45.10
39655;DHT22;25336;59.944;11.010;2023-03-16T16:48:36;5.40;45.00
39655;DHT22;25336;59.944;11.010;2023-03-16T16:51:04;5.40;45.20
39655;DHT22;25336;59.944;11.010;2023-03-16T16:53:33;6.10;45.60
39655;DHT22;25336;59.944;11.010;2023-03-16T16:55:59;5.30;45.40